createdAt,value
2018-06-03T00:01:10.024Z,8.73
2018-06-03T00:03:38.058Z,10.37
2018-06-03T00:06:06.877Z,9.50
2018-06-03T00:08:35.008Z,8.87
2018-06-03T00:11:03.877Z,8.97
2018-06-03T00:13:32.042Z,8.17
2018-06-03T00:16:00.106Z,9.27
2018-06-03T00:18:28.187Z,10.13
2018-06-03T00:21:08.050Z,8.93
2018-06-03T00:23:36.120Z,8.37
2018-06-03T00:26:04.573Z,8.67
2018-06-03T00:28:32.859Z,8.07
2018-06-03T00:31:01.129Z,8.77
2018-06-03T00:33:29.445Z,12.87
2018-06-03T00:36:09.577Z,8.77
2018-06-03T00:38:37.846Z,8.13
2018-06-03T00:41:06.126Z,8.13
2018-06-03T00:43:34.603Z,8.87
2018-06-03T00:46:02.906Z,8.77
2018-06-03T00:48:31.942Z,8.97
2018-06-03T00:51:00.360Z,8.60
2018-06-03T00:53:28.637Z,11.63
2018-06-03T00:55:56.904Z,8.10
2018-06-03T00:58:25.173Z,8.97
2018-06-03T01:00:53.446Z,8.53
2018-06-03T01:03:21.739Z,8.70
2018-06-03T01:05:50.017Z,8.97
2018-06-03T01:08:18.292Z,8.60
2018-06-03T01:10:47.375Z,7.50
2018-06-03T01:13:15.646Z,9.27
2018-06-03T01:15:43.914Z,9.23
2018-06-03T01:18:12.198Z,8.03
2018-06-03T01:20:40.632Z,10.47
2018-06-03T01:23:08.905Z,8.00
2018-06-03T01:25:37.962Z,8.67
2018-06-03T01:28:06.238Z,8.73
2018-06-03T01:30:34.534Z,8.13
2018-06-03T01:33:02.806Z,9.33
2018-06-03T01:35:31.175Z,8.63
2018-06-03T01:37:59.477Z,10.07
2018-06-03T01:40:28.523Z,9.47
2018-06-03T01:42:56.799Z,9.93
2018-06-03T01:45:25.070Z,7.93
2018-06-03T01:47:53.382Z,8.50
2018-06-03T01:50:21.732Z,8.03
2018-06-03T01:52:49.989Z,7.57
2018-06-03T01:55:18.321Z,10.27
2018-06-03T01:57:46.566Z,7.83
2018-06-03T02:00:14.838Z,8.30
2018-06-03T02:02:43.146Z,9.77
2018-06-03T02:05:11.419Z,9.07
2018-06-03T02:07:39.706Z,8.47
2018-06-03T02:10:07.998Z,13.13
2018-06-03T02:12:36.270Z,10.37
2018-06-03T02:15:04.574Z,8.73
2018-06-03T02:17:32.862Z,9.13
2018-06-03T02:20:01.151Z,8.63
2018-06-03T02:22:29.467Z,9.50
2018-06-03T02:24:57.805Z,8.30
2018-06-03T02:27:26.243Z,9.50
2018-06-03T02:29:54.556Z,10.20
2018-06-03T02:32:22.858Z,9.13
2018-06-03T02:34:51.140Z,8.37
2018-06-03T02:37:19.425Z,7.60
2018-06-03T02:39:47.704Z,8.63
2018-06-03T02:42:16.117Z,8.47
2018-06-03T02:44:45.163Z,9.33
2018-06-03T02:47:14.257Z,7.93
2018-06-03T02:49:47.661Z,8.07
2018-06-03T02:52:15.942Z,8.90
2018-06-03T02:54:44.216Z,9.63
2018-06-03T02:57:12.491Z,9.23
2018-06-03T02:59:40.759Z,8.07
2018-06-03T03:02:09.046Z,8.37
2018-06-03T03:04:37.308Z,9.53
2018-06-03T03:07:05.576Z,9.17
2018-06-03T03:09:33.859Z,10.33
2018-06-03T03:12:02.137Z,9.93
2018-06-03T03:14:30.415Z,8.13
2018-06-03T03:16:58.727Z,9.53
2018-06-03T03:19:26.983Z,8.03
2018-06-03T03:21:55.505Z,10.50
2018-06-03T03:24:23.770Z,7.97
2018-06-03T03:26:52.041Z,8.03
2018-06-03T03:29:20.333Z,7.93
2018-06-03T03:31:48.596Z,9.70
2018-06-03T03:34:16.871Z,7.80
2018-06-03T03:36:45.188Z,8.47
2018-06-03T03:39:13.496Z,9.40
2018-06-03T03:41:41.778Z,9.43
2018-06-03T03:44:10.042Z,7.90
2018-06-03T03:46:38.313Z,8.00
2018-06-03T03:49:06.596Z,8.97
2018-06-03T03:51:34.895Z,7.47
2018-06-03T03:54:03.183Z,7.00
2018-06-03T03:56:31.582Z,8.70
2018-06-03T03:58:59.857Z,8.77
2018-06-03T04:01:28.910Z,11.30
2018-06-03T04:03:57.205Z,7.90
2018-06-03T04:06:25.489Z,7.80
2018-06-03T04:08:53.793Z,8.37
2018-06-03T04:11:22.076Z,8.93
2018-06-03T04:13:50.349Z,7.63
2018-06-03T04:16:18.629Z,8.67
2018-06-03T04:18:46.906Z,9.50
2018-06-03T04:21:15.191Z,9.03
2018-06-03T04:23:43.509Z,8.87
2018-06-03T04:26:11.831Z,10.27
2018-06-03T04:28:40.932Z,8.80
2018-06-03T04:31:09.216Z,8.07
2018-06-03T04:33:37.508Z,16.73
2018-06-03T04:36:05.827Z,9.63
2018-06-03T04:38:34.075Z,11.60
2018-06-03T04:41:02.348Z,13.10
2018-06-03T04:43:32.637Z,10.13
2018-06-03T04:46:02.030Z,10.67
2018-06-03T04:48:33.723Z,9.00
2018-06-03T04:51:04.239Z,8.67
2018-06-03T04:53:36.452Z,12.07
2018-06-03T04:56:05.768Z,11.93
2018-06-03T04:58:34.026Z,11.60
2018-06-03T05:01:06.694Z,9.27
2018-06-03T05:03:36.304Z,11.80
2018-06-03T05:06:04.591Z,10.77
2018-06-03T05:08:33.005Z,12.33
2018-06-03T05:11:01.334Z,14.83
2018-06-03T05:13:30.721Z,9.77
2018-06-03T05:16:02.099Z,12.10
2018-06-03T05:18:30.390Z,11.70
2018-06-03T05:20:58.678Z,11.07
2018-06-03T05:23:26.970Z,15.20
2018-06-03T05:25:55.218Z,13.83
2018-06-03T05:28:23.530Z,14.03
2018-06-03T05:30:51.832Z,12.10
2018-06-03T05:33:20.126Z,11.97
2018-06-03T05:35:48.426Z,13.23
2018-06-03T05:38:16.702Z,11.77
2018-06-03T05:40:44.984Z,11.20
2018-06-03T05:43:13.329Z,11.20
2018-06-03T05:45:41.616Z,10.63
2018-06-03T05:48:09.902Z,12.83
2018-06-03T05:50:38.200Z,11.37
2018-06-03T05:53:06.551Z,10.87
2018-06-03T05:55:35.007Z,10.30
2018-06-03T05:58:03.285Z,11.10
2018-06-03T06:00:31.802Z,13.27
2018-06-03T06:03:00.082Z,13.73
2018-06-03T06:05:28.355Z,15.40
2018-06-03T06:07:56.666Z,15.20
2018-06-03T06:10:25.730Z,16.30
2018-06-03T06:12:53.986Z,14.97
2018-06-03T06:15:22.280Z,15.10
2018-06-03T06:17:50.561Z,15.03
2018-06-03T06:20:19.070Z,12.00
2018-06-03T06:22:47.364Z,16.83
2018-06-03T06:25:16.411Z,21.60
2018-06-03T06:27:44.701Z,17.03
2018-06-03T06:30:13.199Z,21.23
2018-06-03T06:32:41.497Z,20.10
2018-06-03T06:35:09.811Z,17.80
2018-06-03T06:37:38.105Z,21.37
2018-06-03T06:40:06.497Z,19.70
2018-06-03T06:42:34.868Z,21.30
2018-06-03T06:45:03.148Z,21.37
2018-06-03T06:47:31.533Z,23.67
2018-06-03T06:49:59.817Z,22.80
2018-06-03T06:52:28.127Z,21.97
2018-06-03T06:54:56.413Z,22.63
2018-06-03T06:57:24.727Z,22.77
2018-06-03T06:59:52.998Z,23.03
2018-06-03T07:02:21.314Z,22.03
2018-06-03T07:04:49.612Z,22.67
2018-06-03T07:07:17.896Z,24.67
2018-06-03T07:09:46.190Z,21.13
2018-06-03T07:12:14.472Z,18.87
2018-06-03T07:14:42.763Z,22.73
2018-06-03T07:17:11.058Z,19.70
2018-06-03T07:19:39.348Z,23.50
2018-06-03T07:22:07.647Z,20.37
2018-06-03T07:24:35.955Z,23.03
2018-06-03T07:27:04.241Z,24.00
2018-06-03T07:29:32.511Z,24.37
2018-06-03T07:32:00.869Z,17.03
2018-06-03T07:34:29.153Z,22.83
2018-06-03T07:36:57.433Z,20.67
2018-06-03T07:39:25.723Z,21.50
2018-06-03T07:41:54.019Z,20.27
2018-06-03T07:44:22.302Z,17.70
2018-06-03T07:46:50.622Z,18.70
2018-06-03T07:49:18.910Z,17.33
2018-06-03T07:51:47.245Z,18.90
2018-06-03T07:54:15.532Z,15.50
2018-06-03T07:56:43.813Z,17.17
2018-06-03T07:59:12.094Z,19.97
2018-06-03T08:01:40.383Z,20.57
2018-06-03T08:04:09.430Z,19.40
2018-06-03T08:06:37.714Z,19.30
2018-06-03T08:09:06.220Z,20.07
2018-06-03T08:11:34.498Z,19.00
2018-06-03T08:14:02.989Z,20.10
2018-06-03T08:16:32.043Z,19.80
2018-06-03T08:19:00.333Z,18.00
2018-06-03T08:21:28.615Z,17.70
2018-06-03T08:23:56.906Z,19.97
2018-06-03T08:26:25.215Z,18.63
2018-06-03T08:28:53.523Z,16.87
2018-06-03T08:31:21.794Z,17.17
2018-06-03T08:33:50.100Z,16.80
2018-06-03T08:36:18.421Z,17.23
2018-06-03T08:38:46.716Z,16.07
2018-06-03T08:41:15.003Z,15.80
2018-06-03T08:43:43.297Z,14.67
2018-06-03T08:46:11.601Z,19.37
2018-06-03T08:48:39.870Z,16.33
2018-06-03T08:51:08.939Z,16.53
2018-06-03T08:53:37.233Z,15.80
2018-06-03T08:56:05.527Z,15.73
2018-06-03T08:58:33.810Z,15.83
2018-06-03T09:01:02.176Z,15.30
2018-06-03T09:03:30.495Z,17.57
2018-06-03T09:05:58.777Z,13.90
2018-06-03T09:08:27.082Z,14.03
2018-06-03T09:10:55.376Z,15.83
2018-06-03T09:13:23.661Z,13.67
2018-06-03T09:15:52.725Z,17.40
2018-06-03T09:18:21.003Z,15.37
2018-06-03T09:20:49.295Z,14.80
2018-06-03T09:23:17.596Z,13.20
2018-06-03T09:25:48.225Z,12.67
2018-06-03T09:28:16.591Z,12.93
2018-06-03T09:31:08.830Z,12.77
2018-06-03T09:33:39.427Z,13.87
2018-06-03T09:36:07.731Z,13.40
2018-06-03T09:38:41.929Z,12.37
2018-06-03T09:41:19.974Z,13.00
2018-06-03T09:43:49.733Z,12.30
2018-06-03T09:46:19.393Z,13.50
2018-06-03T09:48:57.496Z,13.97
2018-06-03T09:51:30.280Z,13.73
2018-06-03T09:53:58.595Z,13.87
2018-06-03T09:56:31.296Z,13.27
2018-06-03T09:59:02.715Z,12.30
2018-06-03T10:01:30.990Z,11.57
2018-06-03T10:03:59.290Z,14.20
2018-06-03T10:06:27.602Z,13.03
2018-06-03T10:08:55.986Z,13.10
2018-06-03T10:11:24.295Z,14.13
2018-06-03T10:13:53.338Z,13.87
2018-06-03T10:16:21.662Z,16.53
2018-06-03T10:18:50.760Z,14.90
2018-06-03T10:21:19.009Z,14.87
2018-06-03T10:23:47.299Z,12.93
2018-06-03T10:26:15.583Z,13.83
2018-06-03T10:28:43.896Z,16.10
2018-06-03T10:31:12.174Z,13.80
2018-06-03T10:33:40.522Z,14.43
2018-06-03T10:36:08.792Z,14.17
2018-06-03T10:38:37.835Z,13.57
2018-06-03T10:41:06.146Z,13.13
2018-06-03T10:43:34.424Z,15.40
2018-06-03T10:46:02.722Z,12.90
2018-06-03T10:48:31.005Z,12.70
2018-06-03T10:50:59.335Z,13.03
2018-06-03T10:53:27.650Z,12.70
2018-06-03T10:55:56.121Z,12.87
2018-06-03T10:58:24.423Z,13.23
2018-06-03T11:00:52.707Z,11.97
2018-06-03T11:03:59.797Z,11.97
2018-06-03T11:06:29.118Z,12.67
2018-06-03T11:08:58.383Z,11.20
2018-06-03T11:11:27.663Z,10.93
2018-06-03T11:13:56.937Z,11.13
2018-06-03T11:16:26.247Z,10.50
2018-06-03T11:18:55.539Z,15.57
2018-06-03T11:21:24.879Z,30.13
2018-06-03T11:23:54.198Z,18.23
2018-06-03T11:26:23.467Z,19.63
2018-06-03T11:28:52.768Z,19.90
2018-06-03T11:31:22.047Z,24.60
2018-06-03T11:33:51.451Z,19.80
2018-06-03T11:36:20.781Z,14.67
2018-06-03T11:38:50.046Z,21.53
2018-06-03T11:41:19.322Z,18.40
2018-06-03T11:43:48.867Z,12.93
2018-06-03T11:46:18.151Z,16.13
2018-06-03T11:48:47.435Z,12.50
2018-06-03T11:51:28.991Z,12.53
2018-06-03T11:54:04.487Z,14.73
2018-06-03T11:56:52.638Z,11.63
2018-06-03T11:59:42.741Z,12.90
2018-06-03T12:02:13.301Z,10.83
2018-06-03T12:04:42.604Z,11.33
2018-06-03T12:07:11.842Z,9.93
2018-06-03T12:09:41.193Z,9.07
2018-06-03T12:12:10.443Z,9.93
2018-06-03T12:14:39.705Z,8.77
2018-06-03T12:17:08.968Z,9.00
2018-06-03T12:19:38.324Z,10.60
2018-06-03T12:22:07.594Z,9.47
2018-06-03T12:24:36.887Z,12.80
2018-06-03T12:27:06.138Z,8.60
2018-06-03T12:29:35.436Z,8.17
2018-06-03T12:32:04.680Z,8.27
2018-06-03T12:34:33.951Z,7.90
2018-06-03T12:37:02.941Z,9.17
2018-06-03T12:39:32.081Z,8.47
2018-06-03T12:42:01.353Z,8.20
2018-06-03T12:44:30.637Z,9.27
2018-06-03T12:46:59.909Z,8.27
2018-06-03T12:49:29.339Z,7.90
2018-06-03T12:51:58.663Z,7.80
2018-06-03T12:54:28.012Z,7.97
2018-06-03T12:56:57.274Z,8.57
2018-06-03T12:59:26.519Z,8.13
2018-06-03T13:01:55.774Z,8.90
2018-06-03T13:04:25.268Z,11.30
2018-06-03T13:06:54.506Z,14.33
2018-06-03T13:09:23.809Z,15.43
2018-06-03T13:11:53.096Z,15.67
2018-06-03T13:14:22.385Z,12.70
2018-06-03T13:16:51.649Z,8.90
2018-06-03T13:19:20.941Z,10.73
2018-06-03T13:21:50.214Z,12.17
2018-06-03T13:24:19.474Z,8.67
2018-06-03T13:26:48.724Z,10.03
2018-06-03T13:29:18.002Z,8.03
2018-06-03T13:31:47.275Z,9.10
2018-06-03T13:34:16.514Z,7.77
2018-06-03T13:36:45.783Z,8.03
2018-06-03T13:39:15.062Z,9.00
2018-06-03T13:41:44.307Z,8.33
2018-06-03T13:44:13.581Z,8.10
2018-06-03T13:46:42.987Z,9.40
2018-06-03T13:49:12.254Z,8.63
2018-06-03T13:51:41.536Z,9.20
2018-06-03T13:54:10.759Z,7.67
2018-06-03T13:56:40.016Z,8.00
2018-06-03T13:59:09.307Z,9.80
2018-06-03T14:01:38.534Z,8.67
2018-06-03T14:04:07.786Z,7.97
2018-06-03T14:06:37.146Z,7.70
2018-06-03T14:09:07.260Z,7.23
2018-06-03T14:11:36.500Z,7.80
2018-06-03T14:14:05.757Z,7.43
2018-06-03T14:16:35.167Z,7.90
2018-06-03T14:19:04.422Z,7.43
2018-06-03T14:21:33.673Z,9.60
2018-06-03T14:24:02.941Z,7.07
2018-06-03T14:26:32.216Z,6.40
2018-06-03T14:29:01.502Z,6.87
2018-06-03T14:31:30.768Z,6.67
2018-06-03T14:34:00.054Z,6.47
2018-06-03T14:36:29.336Z,6.37
2018-06-03T14:38:58.605Z,7.43
2018-06-03T14:41:27.866Z,7.37
2018-06-03T14:43:57.187Z,5.90
2018-06-03T14:46:26.434Z,6.90
2018-06-03T14:48:55.694Z,6.90
2018-06-03T14:51:25.011Z,6.70
2018-06-03T14:53:54.371Z,6.63
2018-06-03T14:56:23.619Z,6.33
2018-06-03T14:58:52.873Z,6.47
2018-06-03T15:01:22.117Z,6.03
2018-06-03T15:03:51.353Z,6.80
2018-06-03T15:06:20.714Z,7.03
2018-06-03T15:08:49.938Z,5.83
2018-06-03T15:11:19.394Z,6.00
2018-06-03T15:13:48.690Z,8.27
2018-06-03T15:16:18.002Z,5.70
2018-06-03T15:18:46.913Z,6.60
2018-06-03T15:21:16.326Z,6.13
2018-06-03T15:23:45.584Z,5.90
2018-06-03T15:26:14.892Z,6.20
2018-06-03T15:28:44.155Z,6.20
2018-06-03T15:31:13.481Z,5.90
2018-06-03T15:33:42.730Z,6.10
2018-06-03T15:36:11.974Z,5.53
2018-06-03T15:38:41.521Z,5.70
2018-06-03T15:41:10.826Z,5.67
2018-06-03T15:43:40.087Z,5.20
2018-06-03T15:46:09.374Z,6.27
2018-06-03T15:48:38.727Z,4.70
2018-06-03T15:51:08.064Z,5.40
2018-06-03T15:53:37.339Z,5.37
2018-06-03T15:56:06.582Z,7.07
2018-06-03T15:58:35.842Z,5.80
2018-06-03T16:01:05.117Z,5.43
2018-06-03T16:03:34.361Z,5.80
2018-06-03T16:06:03.607Z,6.97
2018-06-03T16:08:32.868Z,6.10
2018-06-03T16:11:02.144Z,6.60
2018-06-03T16:13:31.398Z,5.13
2018-06-03T16:16:00.757Z,4.97
2018-06-03T16:18:30.038Z,5.07
2018-06-03T16:20:59.414Z,6.00
2018-06-03T16:23:28.726Z,5.53
2018-06-03T16:25:57.997Z,5.23
2018-06-03T16:28:27.279Z,6.80
2018-06-03T16:30:56.602Z,6.10
2018-06-03T16:33:25.892Z,6.20
2018-06-03T16:35:55.156Z,5.10
2018-06-03T16:38:24.426Z,6.40
2018-06-03T16:40:53.717Z,9.73
2018-06-03T16:43:23.009Z,14.50
2018-06-03T16:45:52.266Z,10.87
2018-06-03T16:48:21.645Z,8.37
2018-06-03T16:50:51.604Z,7.30
2018-06-03T16:53:20.899Z,6.27
2018-06-03T16:55:50.191Z,7.97
2018-06-03T16:58:19.459Z,7.27
2018-06-03T17:00:48.770Z,6.00
2018-06-03T17:03:18.049Z,11.07
2018-06-03T17:05:47.312Z,7.00
2018-06-03T17:08:16.582Z,6.73
2018-06-03T17:10:46.143Z,7.90
2018-06-03T17:13:15.487Z,6.87
2018-06-03T17:15:44.905Z,7.43
2018-06-03T17:18:14.174Z,6.70
2018-06-03T17:20:43.487Z,9.33
2018-06-03T17:23:12.768Z,6.07
2018-06-03T17:25:42.097Z,7.33
2018-06-03T17:28:11.345Z,8.33
2018-06-03T17:30:40.607Z,7.97
2018-06-03T17:33:16.658Z,8.10
2018-06-03T17:35:47.137Z,8.30
2018-06-03T17:38:17.973Z,6.93
2018-06-03T17:40:49.158Z,7.73
2018-06-03T17:43:18.504Z,6.20
2018-06-03T17:45:47.967Z,7.53
2018-06-03T17:48:23.749Z,6.73
2018-06-03T17:50:53.150Z,7.70
2018-06-03T17:53:23.096Z,7.77
2018-06-03T17:55:53.409Z,7.07
2018-06-03T17:58:23.324Z,8.50
2018-06-03T18:00:52.695Z,14.90
2018-06-03T18:03:21.646Z,7.13
2018-06-03T18:05:50.813Z,9.03
2018-06-03T18:08:20.089Z,6.60
2018-06-03T18:10:49.377Z,8.07
2018-06-03T18:13:18.632Z,6.67
2018-06-03T18:15:47.942Z,9.10
2018-06-03T18:18:17.214Z,8.50
2018-06-03T18:20:46.539Z,7.23
2018-06-03T18:23:15.815Z,7.87
2018-06-03T18:25:45.067Z,9.03
2018-06-03T18:28:14.043Z,8.43
2018-06-03T18:30:43.242Z,7.07
2018-06-03T18:33:12.539Z,8.30
2018-06-03T18:35:41.867Z,7.07
2018-06-03T18:38:11.146Z,7.60
2018-06-03T18:40:40.530Z,8.93
2018-06-03T18:49:05.024Z,10.43
2018-06-03T18:51:34.307Z,8.37
2018-06-03T18:54:03.563Z,7.53
2018-06-03T18:56:33.055Z,10.43
2018-06-03T18:59:02.325Z,7.23
2018-06-03T19:01:31.608Z,7.50
2018-06-03T19:04:00.925Z,7.13
2018-06-03T19:06:30.186Z,7.10
2018-06-03T19:08:59.455Z,9.10
2018-06-03T19:11:28.819Z,6.83
2018-06-03T19:13:58.303Z,6.47
2018-06-03T19:16:27.472Z,6.87
2018-06-03T19:18:56.790Z,7.30
2018-06-03T19:21:26.091Z,7.40
2018-06-03T19:23:55.383Z,7.17
2018-06-03T19:26:24.667Z,6.63
2018-06-03T19:28:53.951Z,6.80
2018-06-03T19:31:23.243Z,7.47
2018-06-03T19:33:52.549Z,7.23
2018-06-03T19:36:21.799Z,7.27
2018-06-03T19:38:51.122Z,7.30
2018-06-03T19:41:20.407Z,10.53
2018-06-03T19:43:49.725Z,9.60
2018-06-03T19:46:18.983Z,7.40
2018-06-03T19:48:48.263Z,7.13
2018-06-03T19:51:17.535Z,7.90
2018-06-03T19:53:46.846Z,7.13
2018-06-03T19:56:16.152Z,7.40
2018-06-03T19:58:45.475Z,7.20
2018-06-03T20:01:14.789Z,7.67
2018-06-03T20:03:44.142Z,6.90
2018-06-03T20:06:13.336Z,7.37
2018-06-03T20:08:42.630Z,8.70
2018-06-03T20:11:11.928Z,7.17
2018-06-03T20:13:41.192Z,7.53
2018-06-03T20:16:10.479Z,7.30
2018-06-03T20:18:39.787Z,7.77
2018-06-03T20:21:09.034Z,9.97
2018-06-03T20:23:38.303Z,7.63
2018-06-03T20:26:07.568Z,7.80
2018-06-03T20:28:36.845Z,7.33
2018-06-03T20:31:06.161Z,7.10
2018-06-03T20:33:35.506Z,7.87
2018-06-03T20:36:04.840Z,7.43
2018-06-03T20:38:34.056Z,8.07
2018-06-03T20:41:03.301Z,8.90
2018-06-03T20:43:32.580Z,7.87
2018-06-03T20:46:01.872Z,7.93
2018-06-03T20:48:31.154Z,7.17
2018-06-03T20:51:00.567Z,7.77
2018-06-03T20:53:29.859Z,7.20
2018-06-03T20:58:34.612Z,8.77
2018-06-03T21:01:03.881Z,9.13
2018-06-03T21:03:33.135Z,8.67
2018-06-03T21:06:02.417Z,8.10
2018-06-03T21:08:33.896Z,7.87
2018-06-03T21:11:03.276Z,9.70
2018-06-03T21:13:32.533Z,9.80
2018-06-03T21:16:04.061Z,9.30
2018-06-03T21:18:33.337Z,10.40
2018-06-03T21:21:02.643Z,11.53
2018-06-03T21:23:33.157Z,10.10
2018-06-03T21:26:02.444Z,10.90
2018-06-03T21:28:31.407Z,8.80
2018-06-03T21:31:00.565Z,9.93
2018-06-03T21:33:29.919Z,9.77
2018-06-03T21:35:59.228Z,9.43
2018-06-03T21:38:28.497Z,9.10
2018-06-03T21:40:58.002Z,10.00
2018-06-03T21:43:27.364Z,9.00
2018-06-03T21:45:56.639Z,9.40
2018-06-03T21:48:25.992Z,9.30
2018-06-03T21:50:55.279Z,9.60
2018-06-03T21:53:24.557Z,9.00
2018-06-03T21:55:54.418Z,8.97
2018-06-03T21:58:34.079Z,8.60
2018-06-03T22:01:03.044Z,8.63
2018-06-03T22:03:32.421Z,8.97
2018-06-03T22:06:02.631Z,8.93
2018-06-03T22:08:31.968Z,8.43
2018-06-03T22:11:01.288Z,8.80
2018-06-03T22:13:30.619Z,8.83
2018-06-03T22:15:59.920Z,8.40
2018-06-03T22:18:29.250Z,8.87
2018-06-03T22:20:58.523Z,8.53
2018-06-03T22:23:27.824Z,10.17
2018-06-03T22:25:57.091Z,7.40
2018-06-03T22:28:26.377Z,9.13
2018-06-03T22:30:55.666Z,8.63
2018-06-03T22:33:25.019Z,8.07
2018-06-03T22:35:54.318Z,8.37
2018-06-03T22:38:23.620Z,8.10
2018-06-03T22:40:52.928Z,8.93
2018-06-03T22:43:22.231Z,8.17
2018-06-03T22:45:51.530Z,8.53
2018-06-03T22:48:20.840Z,8.77
2018-06-03T22:50:50.150Z,8.73
2018-06-03T22:53:19.432Z,8.20
2018-06-03T22:55:48.746Z,7.93
2018-06-03T22:58:18.062Z,8.67
2018-06-03T23:00:47.349Z,7.73
2018-06-03T23:03:17.078Z,8.07
2018-06-03T23:05:46.405Z,7.90
2018-06-03T23:08:15.733Z,7.87
2018-06-03T23:10:45.022Z,11.30
2018-06-03T23:13:14.331Z,7.67
2018-06-03T23:15:45.160Z,8.00
2018-06-03T23:18:14.491Z,8.13
2018-06-03T23:20:43.820Z,8.30
2018-06-03T23:23:13.253Z,8.20
2018-06-03T23:25:42.607Z,9.67
2018-06-03T23:28:12.059Z,7.67
2018-06-03T23:30:41.364Z,8.03
2018-06-03T23:33:10.656Z,7.60
2018-06-03T23:35:39.936Z,8.83
2018-06-03T23:38:09.254Z,10.03
2018-06-03T23:40:38.539Z,7.97
2018-06-03T23:43:07.827Z,9.93
2018-06-03T23:45:37.141Z,8.13
2018-06-03T23:48:06.472Z,8.73
2018-06-03T23:50:35.762Z,10.07
2018-06-03T23:53:05.047Z,7.77
2018-06-03T23:55:34.328Z,8.13
2018-06-03T23:58:03.642Z,8.10
